sensor_id;sensor_type;location;lat;lon;timestamp;P1;durP1;ratioP1;P2;durP2;ratioP2
63693;SDS011;49839;51.798;10.954;2022-12-11T11:54:49;13.05;;;6.00;;
63693;SDS011;49839;51.798;10.954;2022-12-11T11:57:21;10.80;;;5.68;;
63693;SDS011;49839;51.798;10.954;2022-12-11T11:59:49;12.60;;;6.63;;
63693;SDS011;49839;51.798;10.954;2022-12-11T12:02:20;14.45;;;7.78;;
63693;SDS011;49839;51.798;10.954;2022-12-11T12:04:48;13.63;;;6.75;;
63693;SDS011;49839;51.798;10.954;2022-12-11T12:07:21;14.27;;;7.43;;
63693;SDS011;49839;51.798;10.954;2022-12-11T12:09:53;13.38;;;6.40;;
63693;SDS011;49839;51.798;10.954;2022-12-11T12:12:25;12.77;;;6.65;;
63693;SDS011;49839;51.798;10.954;2022-12-11T12:15:10;12.02;;;6.47;;
63693;SDS011;49839;51.798;10.954;2022-12-11T12:17:45;11.52;;;6.40;;
63693;SDS011;49839;51.798;10.954;2022-12-11T12:20:23;11.25;;;5.78;;
63693;SDS011;49839;51.798;10.954;2022-12-11T12:22:59;12.18;;;6.38;;
63693;SDS011;49839;51.798;10.954;2022-12-11T12:25:34;12.60;;;6.53;;
63693;SDS011;49839;51.798;10.954;2022-12-11T12:28:09;16.77;;;7.95;;
63693;SDS011;49839;51.798;10.954;2022-12-11T12:30:43;12.23;;;5.75;;
63693;SDS011;49839;51.798;10.954;2022-12-11T12:33:16;12.95;;;6.40;;
63693;SDS011;49839;51.798;10.954;2022-12-11T12:35:49;13.65;;;6.40;;
63693;SDS011;49839;51.798;10.954;2022-12-11T12:38:19;12.88;;;6.35;;
63693;SDS011;49839;51.798;10.954;2022-12-11T12:40:52;10.52;;;5.72;;
63693;SDS011;49839;51.798;10.954;2022-12-11T12:43:30;11.13;;;4.80;;
63693;SDS011;49839;51.798;10.954;2022-12-11T12:46:02;11.88;;;5.90;;
63693;SDS011;49839;51.798;10.954;2022-12-11T12:48:33;11.95;;;6.03;;
63693;SDS011;49839;51.798;10.954;2022-12-11T12:51:00;11.80;;;6.18;;
63693;SDS011;49839;51.798;10.954;2022-12-11T12:53:31;11.75;;;5.88;;
63693;SDS011;49839;51.798;10.954;2022-12-11T12:58:38;13.65;;;5.50;;
63693;SDS011;49839;51.798;10.954;2022-12-11T13:01:06;11.30;;;5.63;;
63693;SDS011;49839;51.798;10.954;2022-12-11T13:03:35;10.98;;;4.75;;
63693;SDS011;49839;51.798;10.954;2022-12-11T13:06:03;13.35;;;5.32;;
63693;SDS011;49839;51.798;10.954;2022-12-11T13:08:33;10.90;;;5.43;;
63693;SDS011;49839;51.798;10.954;2022-12-11T13:11:04;12.27;;;6.45;;
63693;SDS011;49839;51.798;10.954;2022-12-11T13:13:34;11.63;;;6.63;;
63693;SDS011;49839;51.798;10.954;2022-12-11T13:18:48;10.50;;;5.10;;
63693;SDS011;49839;51.798;10.954;2022-12-11T13:21:26;13.18;;;6.47;;
63693;SDS011;49839;51.798;10.954;2022-12-11T13:23:53;13.57;;;7.53;;
63693;SDS011;49839;51.798;10.954;2022-12-11T13:26:27;12.20;;;6.85;;
63693;SDS011;49839;51.798;10.954;2022-12-11T13:28:57;22.05;;;9.98;;
63693;SDS011;49839;51.798;10.954;2022-12-11T13:31:27;25.00;;;11.07;;
63693;SDS011;49839;51.798;10.954;2022-12-11T13:33:56;45.15;;;18.88;;
63693;SDS011;49839;51.798;10.954;2022-12-11T13:36:30;19.85;;;10.98;;
63693;SDS011;49839;51.798;10.954;2022-12-11T13:39:02;13.43;;;8.00;;
63693;SDS011;49839;51.798;10.954;2022-12-11T13:41:31;14.20;;;8.63;;
63693;SDS011;49839;51.798;10.954;2022-12-11T13:44:01;14.73;;;8.57;;
63693;SDS011;49839;51.798;10.954;2022-12-11T13:46:30;14.00;;;9.20;;
63693;SDS011;49839;51.798;10.954;2022-12-11T13:49:00;15.68;;;9.23;;
63693;SDS011;49839;51.798;10.954;2022-12-11T13:51:29;18.42;;;10.38;;
63693;SDS011;49839;51.798;10.954;2022-12-11T13:54:04;17.65;;;10.60;;
63693;SDS011;49839;51.798;10.954;2022-12-11T13:56:32;18.85;;;9.77;;
63693;SDS011;49839;51.798;10.954;2022-12-11T13:59:01;22.15;;;12.20;;
63693;SDS011;49839;51.798;10.954;2022-12-11T14:01:29;30.13;;;14.77;;
63693;SDS011;49839;51.798;10.954;2022-12-11T14:04:00;18.10;;;10.07;;
63693;SDS011;49839;51.798;10.954;2022-12-11T14:06:28;16.23;;;8.32;;
63693;SDS011;49839;51.798;10.954;2022-12-11T14:08:56;13.48;;;7.35;;
63693;SDS011;49839;51.798;10.954;2022-12-11T14:11:26;15.07;;;8.13;;
63693;SDS011;49839;51.798;10.954;2022-12-11T14:13:55;14.35;;;7.63;;
63693;SDS011;49839;51.798;10.954;2022-12-11T14:16:25;15.23;;;7.50;;
63693;SDS011;49839;51.798;10.954;2022-12-11T14:18:54;11.68;;;6.28;;
63693;SDS011;49839;51.798;10.954;2022-12-11T14:21:24;13.05;;;6.80;;
63693;SDS011;49839;51.798;10.954;2022-12-11T14:23:52;12.93;;;6.63;;
63693;SDS011;49839;51.798;10.954;2022-12-11T14:26:21;12.82;;;7.22;;
63693;SDS011;49839;51.798;10.954;2022-12-11T14:28:49;14.32;;;8.52;;
63693;SDS011;49839;51.798;10.954;2022-12-11T14:31:22;13.10;;;6.85;;
63693;SDS011;49839;51.798;10.954;2022-12-11T14:33:55;12.52;;;7.15;;
63693;SDS011;49839;51.798;10.954;2022-12-11T14:36:24;17.05;;;6.85;;
63693;SDS011;49839;51.798;10.954;2022-12-11T14:38:54;11.48;;;6.68;;
63693;SDS011;49839;51.798;10.954;2022-12-11T14:41:24;13.30;;;6.75;;
63693;SDS011;49839;51.798;10.954;2022-12-11T14:43:53;11.00;;;5.03;;
63693;SDS011;49839;51.798;10.954;2022-12-11T14:46:24;10.98;;;5.97;;
63693;SDS011;49839;51.798;10.954;2022-12-11T14:48:56;9.50;;;5.03;;
63693;SDS011;49839;51.798;10.954;2022-12-11T14:51:27;13.13;;;7.00;;
63693;SDS011;49839;51.798;10.954;2022-12-11T14:53:55;14.32;;;6.80;;
63693;SDS011;49839;51.798;10.954;2022-12-11T14:56:24;11.55;;;4.88;;
63693;SDS011;49839;51.798;10.954;2022-12-11T14:58:53;11.43;;;4.82;;
63693;SDS011;49839;51.798;10.954;2022-12-11T15:01:22;10.65;;;5.40;;
63693;SDS011;49839;51.798;10.954;2022-12-11T15:04:00;8.48;;;4.10;;
63693;SDS011;49839;51.798;10.954;2022-12-11T15:06:29;11.55;;;5.30;;
63693;SDS011;49839;51.798;10.954;2022-12-11T15:09:07;12.63;;;6.47;;
63693;SDS011;49839;51.798;10.954;2022-12-11T15:11:38;11.95;;;6.25;;
63693;SDS011;49839;51.798;10.954;2022-12-11T15:14:08;12.25;;;7.45;;
63693;SDS011;49839;51.798;10.954;2022-12-11T15:16:37;18.40;;;6.90;;
63693;SDS011;49839;51.798;10.954;2022-12-11T15:19:13;15.88;;;7.85;;
63693;SDS011;49839;51.798;10.954;2022-12-11T15:21:47;24.20;;;13.07;;
63693;SDS011;49839;51.798;10.954;2022-12-11T15:24:22;12.57;;;6.00;;
63693;SDS011;49839;51.798;10.954;2022-12-11T15:26:51;14.73;;;7.88;;
63693;SDS011;49839;51.798;10.954;2022-12-11T15:29:24;14.93;;;7.13;;
63693;SDS011;49839;51.798;10.954;2022-12-11T15:32:00;12.95;;;7.47;;
63693;SDS011;49839;51.798;10.954;2022-12-11T15:34:30;9.85;;;5.43;;
63693;SDS011;49839;51.798;10.954;2022-12-11T15:36:59;12.25;;;7.47;;
63693;SDS011;49839;51.798;10.954;2022-12-11T15:39:28;10.07;;;5.70;;
63693;SDS011;49839;51.798;10.954;2022-12-11T15:41:56;12.48;;;7.57;;
63693;SDS011;49839;51.798;10.954;2022-12-11T15:44:23;13.38;;;7.45;;
63693;SDS011;49839;51.798;10.954;2022-12-11T15:46:51;11.30;;;6.32;;
63693;SDS011;49839;51.798;10.954;2022-12-11T15:49:18;12.48;;;6.32;;
63693;SDS011;49839;51.798;10.954;2022-12-11T15:51:49;10.15;;;5.70;;
63693;SDS011;49839;51.798;10.954;2022-12-11T15:54:19;13.80;;;6.25;;
63693;SDS011;49839;51.798;10.954;2022-12-11T15:56:46;16.95;;;7.25;;
63693;SDS011;49839;51.798;10.954;2022-12-11T15:59:14;18.08;;;7.03;;
63693;SDS011;49839;51.798;10.954;2022-12-11T16:01:41;18.42;;;8.70;;
63693;SDS011;49839;51.798;10.954;2022-12-11T16:04:12;12.27;;;7.05;;
63693;SDS011;49839;51.798;10.954;2022-12-11T16:06:39;13.00;;;7.00;;
63693;SDS011;49839;51.798;10.954;2022-12-11T16:09:10;14.45;;;7.18;;
63693;SDS011;49839;51.798;10.954;2022-12-11T16:11:39;14.52;;;7.47;;
63693;SDS011;49839;51.798;10.954;2022-12-11T16:14:07;18.77;;;8.02;;
63693;SDS011;49839;51.798;10.954;2022-12-11T16:16:34;13.75;;;6.93;;
63693;SDS011;49839;51.798;10.954;2022-12-11T16:19:03;15.13;;;7.70;;
63693;SDS011;49839;51.798;10.954;2022-12-11T16:21:32;12.73;;;6.78;;
63693;SDS011;49839;51.798;10.954;2022-12-11T16:24:03;16.80;;;8.32;;
63693;SDS011;49839;51.798;10.954;2022-12-11T16:26:32;20.80;;;10.23;;
63693;SDS011;49839;51.798;10.954;2022-12-11T16:29:01;11.20;;;4.78;;
63693;SDS011;49839;51.798;10.954;2022-12-11T16:31:29;9.80;;;5.10;;
63693;SDS011;49839;51.798;10.954;2022-12-11T16:33:56;12.25;;;5.15;;
63693;SDS011;49839;51.798;10.954;2022-12-11T16:36:24;13.35;;;6.57;;
63693;SDS011;49839;51.798;10.954;2022-12-11T16:38:51;14.63;;;7.93;;
63693;SDS011;49839;51.798;10.954;2022-12-11T16:41:19;12.60;;;7.15;;
63693;SDS011;49839;51.798;10.954;2022-12-11T16:43:48;13.93;;;7.50;;
63693;SDS011;49839;51.798;10.954;2022-12-11T16:46:17;13.85;;;7.70;;
63693;SDS011;49839;51.798;10.954;2022-12-11T16:48:49;19.02;;;9.90;;
63693;SDS011;49839;51.798;10.954;2022-12-11T16:51:17;15.15;;;8.13;;
63693;SDS011;49839;51.798;10.954;2022-12-11T16:53:44;14.13;;;7.95;;
63693;SDS011;49839;51.798;10.954;2022-12-11T16:56:12;17.17;;;8.43;;
63693;SDS011;49839;51.798;10.954;2022-12-11T16:58:39;17.55;;;10.45;;
63693;SDS011;49839;51.798;10.954;2022-12-11T17:01:07;18.48;;;10.30;;
63693;SDS011;49839;51.798;10.954;2022-12-11T17:06:06;16.45;;;9.85;;
63693;SDS011;49839;51.798;10.954;2022-12-11T17:08:34;20.30;;;12.00;;
63693;SDS011;49839;51.798;10.954;2022-12-11T17:11:03;20.73;;;12.55;;
63693;SDS011;49839;51.798;10.954;2022-12-11T17:13:31;23.08;;;12.43;;
63693;SDS011;49839;51.798;10.954;2022-12-11T17:16:02;23.33;;;13.00;;
63693;SDS011;49839;51.798;10.954;2022-12-11T17:18:30;23.58;;;12.55;;
63693;SDS011;49839;51.798;10.954;2022-12-11T17:20:58;24.45;;;11.93;;
63693;SDS011;49839;51.798;10.954;2022-12-11T17:23:30;22.63;;;12.55;;
63693;SDS011;49839;51.798;10.954;2022-12-11T17:25:57;19.02;;;9.75;;
63693;SDS011;49839;51.798;10.954;2022-12-11T17:28:25;17.23;;;10.75;;
63693;SDS011;49839;51.798;10.954;2022-12-11T17:30:52;17.20;;;9.68;;
63693;SDS011;49839;51.798;10.954;2022-12-11T17:33:20;17.67;;;10.25;;
63693;SDS011;49839;51.798;10.954;2022-12-11T17:35:48;16.27;;;8.90;;
63693;SDS011;49839;51.798;10.954;2022-12-11T17:38:15;17.13;;;9.10;;
63693;SDS011;49839;51.798;10.954;2022-12-11T17:40:44;16.42;;;9.73;;
63693;SDS011;49839;51.798;10.954;2022-12-11T17:43:12;19.73;;;9.70;;
63693;SDS011;49839;51.798;10.954;2022-12-11T17:45:40;15.63;;;8.55;;
63693;SDS011;49839;51.798;10.954;2022-12-11T17:48:08;14.68;;;7.80;;
63693;SDS011;49839;51.798;10.954;2022-12-11T17:50:38;13.57;;;7.43;;
63693;SDS011;49839;51.798;10.954;2022-12-11T17:55:36;14.02;;;7.63;;
63693;SDS011;49839;51.798;10.954;2022-12-11T17:58:09;13.48;;;7.82;;
63693;SDS011;49839;51.798;10.954;2022-12-11T18:00:37;16.83;;;8.23;;
63693;SDS011;49839;51.798;10.954;2022-12-11T18:03:14;15.48;;;7.43;;
63693;SDS011;49839;51.798;10.954;2022-12-11T18:05:42;13.02;;;6.50;;
63693;SDS011;49839;51.798;10.954;2022-12-11T18:08:13;15.65;;;7.30;;
63693;SDS011;49839;51.798;10.954;2022-12-11T18:10:41;14.55;;;7.22;;
63693;SDS011;49839;51.798;10.954;2022-12-11T18:13:10;15.40;;;8.80;;
63693;SDS011;49839;51.798;10.954;2022-12-11T18:15:38;17.30;;;8.73;;
63693;SDS011;49839;51.798;10.954;2022-12-11T18:18:06;17.42;;;9.20;;
63693;SDS011;49839;51.798;10.954;2022-12-11T18:20:34;18.05;;;8.05;;
63693;SDS011;49839;51.798;10.954;2022-12-11T18:23:02;15.75;;;8.10;;
63693;SDS011;49839;51.798;10.954;2022-12-11T18:25:30;16.40;;;8.55;;
63693;SDS011;49839;51.798;10.954;2022-12-11T18:27:58;27.38;;;13.00;;
63693;SDS011;49839;51.798;10.954;2022-12-11T18:30:27;19.02;;;9.27;;
63693;SDS011;49839;51.798;10.954;2022-12-11T18:32:54;18.63;;;9.23;;
63693;SDS011;49839;51.798;10.954;2022-12-11T18:35:22;19.63;;;9.93;;
63693;SDS011;49839;51.798;10.954;2022-12-11T18:37:50;16.95;;;9.18;;
63693;SDS011;49839;51.798;10.954;2022-12-11T18:40:20;15.90;;;8.13;;
63693;SDS011;49839;51.798;10.954;2022-12-11T18:45:32;21.27;;;11.10;;
63693;SDS011;49839;51.798;10.954;2022-12-11T18:48:00;16.73;;;9.67;;
63693;SDS011;49839;51.798;10.954;2022-12-11T18:50:27;32.38;;;16.45;;
63693;SDS011;49839;51.798;10.954;2022-12-11T18:52:55;22.95;;;11.45;;
63693;SDS011;49839;51.798;10.954;2022-12-11T18:55:23;22.02;;;11.45;;
63693;SDS011;49839;51.798;10.954;2022-12-11T18:57:50;16.17;;;7.68;;
63693;SDS011;49839;51.798;10.954;2022-12-11T19:00:18;17.63;;;8.60;;
63693;SDS011;49839;51.798;10.954;2022-12-11T19:02:50;20.08;;;8.70;;
63693;SDS011;49839;51.798;10.954;2022-12-11T19:05:18;16.10;;;8.65;;
63693;SDS011;49839;51.798;10.954;2022-12-11T19:07:49;17.23;;;9.00;;
63693;SDS011;49839;51.798;10.954;2022-12-11T19:10:19;15.40;;;7.78;;
63693;SDS011;49839;51.798;10.954;2022-12-11T19:12:46;14.27;;;7.60;;
63693;SDS011;49839;51.798;10.954;2022-12-11T19:17:58;18.23;;;8.93;;
63693;SDS011;49839;51.798;10.954;2022-12-11T19:20:25;17.60;;;9.25;;
63693;SDS011;49839;51.798;10.954;2022-12-11T19:23:13;14.23;;;6.97;;
63693;SDS011;49839;51.798;10.954;2022-12-11T19:25:41;15.68;;;8.80;;
63693;SDS011;49839;51.798;10.954;2022-12-11T19:28:12;15.55;;;7.35;;
63693;SDS011;49839;51.798;10.954;2022-12-11T19:30:41;15.48;;;7.93;;
63693;SDS011;49839;51.798;10.954;2022-12-11T19:33:13;16.17;;;7.70;;
63693;SDS011;49839;51.798;10.954;2022-12-11T19:35:44;12.98;;;7.10;;
63693;SDS011;49839;51.798;10.954;2022-12-11T19:38:13;15.88;;;7.05;;
63693;SDS011;49839;51.798;10.954;2022-12-11T19:40:41;16.30;;;8.10;;
63693;SDS011;49839;51.798;10.954;2022-12-11T19:43:11;18.42;;;8.38;;
63693;SDS011;49839;51.798;10.954;2022-12-11T19:45:39;14.27;;;6.68;;
63693;SDS011;49839;51.798;10.954;2022-12-11T19:48:07;13.77;;;7.15;;
63693;SDS011;49839;51.798;10.954;2022-12-11T19:50:36;15.23;;;8.18;;
63693;SDS011;49839;51.798;10.954;2022-12-11T19:53:04;14.48;;;7.90;;
63693;SDS011;49839;51.798;10.954;2022-12-11T19:55:32;16.77;;;8.32;;
63693;SDS011;49839;51.798;10.954;2022-12-11T19:58:00;13.00;;;6.75;;
63693;SDS011;49839;51.798;10.954;2022-12-11T20:00:27;13.40;;;7.03;;
63693;SDS011;49839;51.798;10.954;2022-12-11T20:02:55;13.20;;;6.75;;
63693;SDS011;49839;51.798;10.954;2022-12-11T20:05:23;13.40;;;6.68;;
63693;SDS011;49839;51.798;10.954;2022-12-11T20:07:52;12.80;;;6.68;;
63693;SDS011;49839;51.798;10.954;2022-12-11T20:10:19;12.90;;;6.20;;
63693;SDS011;49839;51.798;10.954;2022-12-11T20:12:49;13.50;;;6.53;;
63693;SDS011;49839;51.798;10.954;2022-12-11T20:15:19;12.73;;;6.57;;
63693;SDS011;49839;51.798;10.954;2022-12-11T20:17:53;12.25;;;6.13;;
63693;SDS011;49839;51.798;10.954;2022-12-11T20:20:22;12.43;;;6.32;;
63693;SDS011;49839;51.798;10.954;2022-12-11T20:22:51;13.52;;;6.38;;
63693;SDS011;49839;51.798;10.954;2022-12-11T20:25:18;13.63;;;6.60;;
63693;SDS011;49839;51.798;10.954;2022-12-11T20:27:46;13.05;;;6.00;;
63693;SDS011;49839;51.798;10.954;2022-12-11T20:30:14;13.18;;;7.05;;
63693;SDS011;49839;51.798;10.954;2022-12-11T20:32:42;15.02;;;7.38;;
63693;SDS011;49839;51.798;10.954;2022-12-11T20:35:10;13.63;;;6.50;;
63693;SDS011;49839;51.798;10.954;2022-12-11T20:37:40;13.27;;;6.32;;
63693;SDS011;49839;51.798;10.954;2022-12-11T20:40:10;16.10;;;9.07;;
63693;SDS011;49839;51.798;10.954;2022-12-11T20:42:38;18.88;;;10.07;;
63693;SDS011;49839;51.798;10.954;2022-12-11T20:45:06;17.77;;;8.77;;
63693;SDS011;49839;51.798;10.954;2022-12-11T20:47:34;22.33;;;10.38;;
63693;SDS011;49839;51.798;10.954;2022-12-11T20:50:02;27.80;;;11.57;;
63693;SDS011;49839;51.798;10.954;2022-12-11T20:52:33;29.27;;;11.52;;
63693;SDS011;49839;51.798;10.954;2022-12-11T20:55:01;22.13;;;10.73;;
63693;SDS011;49839;51.798;10.954;2022-12-11T20:57:30;17.90;;;8.88;;
63693;SDS011;49839;51.798;10.954;2022-12-11T20:59:58;22.27;;;10.07;;
63693;SDS011;49839;51.798;10.954;2022-12-11T21:02:27;25.58;;;12.80;;
63693;SDS011;49839;51.798;10.954;2022-12-11T21:04:56;35.95;;;18.08;;
63693;SDS011;49839;51.798;10.954;2022-12-11T21:07:23;44.83;;;20.08;;
63693;SDS011;49839;51.798;10.954;2022-12-11T21:09:51;27.80;;;12.73;;
63693;SDS011;49839;51.798;10.954;2022-12-11T21:12:18;17.33;;;7.95;;
63693;SDS011;49839;51.798;10.954;2022-12-11T21:14:47;15.82;;;7.50;;
63693;SDS011;49839;51.798;10.954;2022-12-11T21:17:15;15.82;;;7.35;;
63693;SDS011;49839;51.798;10.954;2022-12-11T21:19:42;17.20;;;7.57;;
63693;SDS011;49839;51.798;10.954;2022-12-11T21:22:10;14.27;;;6.50;;
63693;SDS011;49839;51.798;10.954;2022-12-11T21:24:37;13.85;;;6.20;;
63693;SDS011;49839;51.798;10.954;2022-12-11T21:27:09;14.07;;;6.53;;
63693;SDS011;49839;51.798;10.954;2022-12-11T21:29:36;14.25;;;7.40;;
63693;SDS011;49839;51.798;10.954;2022-12-11T21:32:05;21.90;;;9.13;;
63693;SDS011;49839;51.798;10.954;2022-12-11T21:34:33;18.03;;;8.23;;
63693;SDS011;49839;51.798;10.954;2022-12-11T21:37:00;16.63;;;8.07;;
63693;SDS011;49839;51.798;10.954;2022-12-11T21:39:28;26.63;;;12.73;;
63693;SDS011;49839;51.798;10.954;2022-12-11T21:42:04;34.42;;;14.55;;
63693;SDS011;49839;51.798;10.954;2022-12-11T21:44:31;38.40;;;17.48;;
63693;SDS011;49839;51.798;10.954;2022-12-11T21:47:20;20.80;;;8.80;;
63693;SDS011;49839;51.798;10.954;2022-12-11T21:49:49;14.13;;;7.22;;
63693;SDS011;49839;51.798;10.954;2022-12-11T21:52:17;14.23;;;6.70;;
63693;SDS011;49839;51.798;10.954;2022-12-11T21:54:44;14.10;;;5.90;;
63693;SDS011;49839;51.798;10.954;2022-12-11T21:57:12;13.60;;;5.88;;
63693;SDS011;49839;51.798;10.954;2022-12-11T21:59:39;13.18;;;6.53;;
63693;SDS011;49839;51.798;10.954;2022-12-11T22:02:10;10.20;;;5.88;;
63693;SDS011;49839;51.798;10.954;2022-12-11T22:04:38;11.52;;;4.95;;
63693;SDS011;49839;51.798;10.954;2022-12-11T22:07:07;13.48;;;6.30;;
63693;SDS011;49839;51.798;10.954;2022-12-11T22:09:34;9.77;;;5.13;;
63693;SDS011;49839;51.798;10.954;2022-12-11T22:12:02;11.73;;;5.30;;
63693;SDS011;49839;51.798;10.954;2022-12-11T22:14:29;9.55;;;4.50;;
63693;SDS011;49839;51.798;10.954;2022-12-11T22:17:00;10.32;;;5.50;;
63693;SDS011;49839;51.798;10.954;2022-12-11T22:19:28;11.73;;;5.07;;
63693;SDS011;49839;51.798;10.954;2022-12-11T22:22:00;9.32;;;4.90;;
63693;SDS011;49839;51.798;10.954;2022-12-11T22:24:28;10.05;;;4.22;;
63693;SDS011;49839;51.798;10.954;2022-12-11T22:26:56;8.82;;;4.28;;
63693;SDS011;49839;51.798;10.954;2022-12-11T22:29:23;7.57;;;3.75;;
63693;SDS011;49839;51.798;10.954;2022-12-11T22:31:51;8.65;;;3.95;;
63693;SDS011;49839;51.798;10.954;2022-12-11T22:34:19;7.63;;;3.88;;
63693;SDS011;49839;51.798;10.954;2022-12-11T22:36:47;7.60;;;3.65;;
63693;SDS011;49839;51.798;10.954;2022-12-11T22:39:15;6.63;;;3.58;;
63693;SDS011;49839;51.798;10.954;2022-12-11T22:41:43;6.95;;;3.50;;
63693;SDS011;49839;51.798;10.954;2022-12-11T22:44:11;10.55;;;3.55;;
63693;SDS011;49839;51.798;10.954;2022-12-11T22:46:39;8.13;;;3.35;;
63693;SDS011;49839;51.798;10.954;2022-12-11T22:49:16;7.97;;;3.42;;
63693;SDS011;49839;51.798;10.954;2022-12-11T22:51:44;7.00;;;3.25;;
63693;SDS011;49839;51.798;10.954;2022-12-11T22:54:12;8.50;;;2.72;;
63693;SDS011;49839;51.798;10.954;2022-12-11T22:56:40;6.53;;;2.72;;
63693;SDS011;49839;51.798;10.954;2022-12-11T22:59:08;7.00;;;2.95;;
63693;SDS011;49839;51.798;10.954;2022-12-11T23:01:35;7.25;;;3.10;;
63693;SDS011;49839;51.798;10.954;2022-12-11T23:04:03;7.05;;;3.03;;
63693;SDS011;49839;51.798;10.954;2022-12-11T23:06:30;7.47;;;3.05;;
63693;SDS011;49839;51.798;10.954;2022-12-11T23:08:58;9.77;;;3.17;;
63693;SDS011;49839;51.798;10.954;2022-12-11T23:11:26;6.80;;;2.65;;
63693;SDS011;49839;51.798;10.954;2022-12-11T23:13:55;7.22;;;3.47;;
63693;SDS011;49839;51.798;10.954;2022-12-11T23:16:23;7.25;;;3.08;;
63693;SDS011;49839;51.798;10.954;2022-12-11T23:18:51;9.30;;;3.55;;
63693;SDS011;49839;51.798;10.954;2022-12-11T23:21:19;8.13;;;3.30;;
63693;SDS011;49839;51.798;10.954;2022-12-11T23:23:48;6.47;;;2.90;;
63693;SDS011;49839;51.798;10.954;2022-12-11T23:26:16;8.25;;;3.28;;
63693;SDS011;49839;51.798;10.954;2022-12-11T23:28:45;6.95;;;3.03;;
63693;SDS011;49839;51.798;10.954;2022-12-11T23:31:14;6.78;;;2.92;;
63693;SDS011;49839;51.798;10.954;2022-12-11T23:33:41;7.50;;;3.30;;
63693;SDS011;49839;51.798;10.954;2022-12-11T23:36:09;7.53;;;3.28;;
63693;SDS011;49839;51.798;10.954;2022-12-11T23:38:36;6.90;;;3.33;;
63693;SDS011;49839;51.798;10.954;2022-12-11T23:41:04;8.85;;;3.67;;
63693;SDS011;49839;51.798;10.954;2022-12-11T23:43:32;8.82;;;3.50;;
63693;SDS011;49839;51.798;10.954;2022-12-11T23:46:00;6.85;;;3.15;;
63693;SDS011;49839;51.798;10.954;2022-12-11T23:48:28;7.18;;;2.97;;
63693;SDS011;49839;51.798;10.954;2022-12-11T23:50:56;9.02;;;3.05;;
63693;SDS011;49839;51.798;10.954;2022-12-11T23:53:24;7.53;;;3.35;;
63693;SDS011;49839;51.798;10.954;2022-12-11T23:55:51;8.73;;;3.33;;
63693;SDS011;49839;51.798;10.954;2022-12-11T23:58:19;11.82;;;3.70;;
